sensor_id;sensor_type;location;lat;lon;timestamp;temperature;humidity
75130;HTU21D;63703;44.716;37.846;2023-12-07T00:00:38;7.64;77.35
75130;HTU21D;63703;44.716;37.846;2023-12-07T00:03:04;7.65;77.33
75130;HTU21D;63703;44.716;37.846;2023-12-07T00:05:32;7.70;77.52
75130;HTU21D;63703;44.716;37.846;2023-12-07T00:07:59;7.71;77.53
75130;HTU21D;63703;44.716;37.846;2023-12-07T00:10:25;7.72;77.50
75130;HTU21D;63703;44.716;37.846;2023-12-07T00:12:51;7.76;77.56
75130;HTU21D;63703;44.716;37.846;2023-12-07T00:15:17;7.79;77.62
75130;HTU21D;63703;44.716;37.846;2023-12-07T00:17:42;7.81;77.73
75130;HTU21D;63703;44.716;37.846;2023-12-07T00:20:09;7.83;77.74
75130;HTU21D;63703;44.716;37.846;2023-12-07T00:22:35;7.84;77.76
75130;HTU21D;63703;44.716;37.846;2023-12-07T00:25:01;7.85;77.82
75130;HTU21D;63703;44.716;37.846;2023-12-07T00:27:27;7.84;77.82
75130;HTU21D;63703;44.716;37.846;2023-12-07T00:29:53;7.85;77.78
75130;HTU21D;63703;44.716;37.846;2023-12-07T00:32:19;7.85;77.79
75130;HTU21D;63703;44.716;37.846;2023-12-07T00:34:45;7.85;77.82
75130;HTU21D;63703;44.716;37.846;2023-12-07T00:37:11;7.86;77.84
75130;HTU21D;63703;44.716;37.846;2023-12-07T00:39:37;7.87;77.89
75130;HTU21D;63703;44.716;37.846;2023-12-07T00:42:03;7.87;77.94
75130;HTU21D;63703;44.716;37.846;2023-12-07T00:44:29;7.90;77.99
75130;HTU21D;63703;44.716;37.846;2023-12-07T00:46:55;7.92;78.01
75130;HTU21D;63703;44.716;37.846;2023-12-07T00:49:21;7.94;78.00
75130;HTU21D;63703;44.716;37.846;2023-12-07T00:51:47;7.96;77.99
75130;HTU21D;63703;44.716;37.846;2023-12-07T00:54:13;7.98;78.01
75130;HTU21D;63703;44.716;37.846;2023-12-07T00:56:39;7.98;77.98
75130;HTU21D;63703;44.716;37.846;2023-12-07T00:59:05;8.00;78.04
75130;HTU21D;63703;44.716;37.846;2023-12-07T01:01:31;8.02;78.14
75130;HTU21D;63703;44.716;37.846;2023-12-07T01:03:57;8.03;78.18
75130;HTU21D;63703;44.716;37.846;2023-12-07T01:06:23;8.04;78.14
75130;HTU21D;63703;44.716;37.846;2023-12-07T01:08:49;8.04;78.17
75130;HTU21D;63703;44.716;37.846;2023-12-07T01:11:15;8.05;78.18
75130;HTU21D;63703;44.716;37.846;2023-12-07T01:13:41;8.07;78.26
75130;HTU21D;63703;44.716;37.846;2023-12-07T01:16:07;8.06;78.27
75130;HTU21D;63703;44.716;37.846;2023-12-07T01:18:33;8.06;78.27
75130;HTU21D;63703;44.716;37.846;2023-12-07T01:20:58;8.06;78.25
75130;HTU21D;63703;44.716;37.846;2023-12-07T01:23:24;8.06;78.34
75130;HTU21D;63703;44.716;37.846;2023-12-07T01:25:50;8.04;78.34
75130;HTU21D;63703;44.716;37.846;2023-12-07T01:28:16;8.02;78.40
75130;HTU21D;63703;44.716;37.846;2023-12-07T01:30:42;8.01;78.43
75130;HTU21D;63703;44.716;37.846;2023-12-07T01:33:08;8.00;78.43
75130;HTU21D;63703;44.716;37.846;2023-12-07T01:35:34;8.02;78.47
75130;HTU21D;63703;44.716;37.846;2023-12-07T01:38:00;8.02;78.56
75130;HTU21D;63703;44.716;37.846;2023-12-07T01:40:26;8.03;78.70
75130;HTU21D;63703;44.716;37.846;2023-12-07T01:42:52;8.01;78.71
75130;HTU21D;63703;44.716;37.846;2023-12-07T01:45:19;8.02;78.69
75130;HTU21D;63703;44.716;37.846;2023-12-07T01:47:46;8.02;78.69
75130;HTU21D;63703;44.716;37.846;2023-12-07T01:50:13;8.02;78.80
75130;HTU21D;63703;44.716;37.846;2023-12-07T01:52:47;8.04;78.92
75130;HTU21D;63703;44.716;37.846;2023-12-07T01:55:14;8.02;78.83
75130;HTU21D;63703;44.716;37.846;2023-12-07T01:57:42;8.02;78.84
75130;HTU21D;63703;44.716;37.846;2023-12-07T02:00:09;8.01;78.83
75130;HTU21D;63703;44.716;37.846;2023-12-07T02:02:35;8.00;78.82
75130;HTU21D;63703;44.716;37.846;2023-12-07T02:05:02;7.99;78.80
75130;HTU21D;63703;44.716;37.846;2023-12-07T02:07:30;7.96;78.81
75130;HTU21D;63703;44.716;37.846;2023-12-07T02:09:57;7.92;78.77
75130;HTU21D;63703;44.716;37.846;2023-12-07T02:12:24;7.89;78.81
75130;HTU21D;63703;44.716;37.846;2023-12-07T02:14:51;7.91;78.85
75130;HTU21D;63703;44.716;37.846;2023-12-07T02:17:27;7.97;78.98
75130;HTU21D;63703;44.716;37.846;2023-12-07T02:20:25;7.97;79.05
75130;HTU21D;63703;44.716;37.846;2023-12-07T02:22:55;7.97;78.97
75130;HTU21D;63703;44.716;37.846;2023-12-07T02:25:29;7.99;78.99
75130;HTU21D;63703;44.716;37.846;2023-12-07T02:27:57;8.02;78.99
75130;HTU21D;63703;44.716;37.846;2023-12-07T02:30:23;8.06;78.95
75130;HTU21D;63703;44.716;37.846;2023-12-07T02:32:49;8.06;78.92
75130;HTU21D;63703;44.716;37.846;2023-12-07T02:35:15;8.07;78.88
75130;HTU21D;63703;44.716;37.846;2023-12-07T02:37:44;8.06;78.84
75130;HTU21D;63703;44.716;37.846;2023-12-07T02:40:13;8.06;78.72
75130;HTU21D;63703;44.716;37.846;2023-12-07T02:42:41;8.00;78.63
75130;HTU21D;63703;44.716;37.846;2023-12-07T02:45:09;7.93;78.52
75130;HTU21D;63703;44.716;37.846;2023-12-07T02:47:36;7.86;78.44
75130;HTU21D;63703;44.716;37.846;2023-12-07T02:50:03;7.81;78.37
75130;HTU21D;63703;44.716;37.846;2023-12-07T02:52:30;7.75;78.29
75130;HTU21D;63703;44.716;37.846;2023-12-07T02:54:56;7.73;78.21
75130;HTU21D;63703;44.716;37.846;2023-12-07T02:57:21;7.73;78.13
75130;HTU21D;63703;44.716;37.846;2023-12-07T02:59:48;7.71;78.08
75130;HTU21D;63703;44.716;37.846;2023-12-07T03:02:14;7.67;78.04
75130;HTU21D;63703;44.716;37.846;2023-12-07T03:04:40;7.64;78.01
75130;HTU21D;63703;44.716;37.846;2023-12-07T03:07:06;7.64;77.95
75130;HTU21D;63703;44.716;37.846;2023-12-07T03:09:32;7.62;77.93
75130;HTU21D;63703;44.716;37.846;2023-12-07T03:11:58;7.64;77.89
75130;HTU21D;63703;44.716;37.846;2023-12-07T03:14:24;7.70;77.86
75130;HTU21D;63703;44.716;37.846;2023-12-07T03:16:49;7.72;77.80
75130;HTU21D;63703;44.716;37.846;2023-12-07T03:19:15;7.73;77.74
75130;HTU21D;63703;44.716;37.846;2023-12-07T03:21:42;7.70;77.73
75130;HTU21D;63703;44.716;37.846;2023-12-07T03:24:11;7.69;77.78
75130;HTU21D;63703;44.716;37.846;2023-12-07T03:26:37;7.77;77.78
75130;HTU21D;63703;44.716;37.846;2023-12-07T03:29:04;7.89;77.72
75130;HTU21D;63703;44.716;37.846;2023-12-07T03:31:30;8.00;77.69
75130;HTU21D;63703;44.716;37.846;2023-12-07T03:33:56;8.11;77.66
75130;HTU21D;63703;44.716;37.846;2023-12-07T03:36:23;8.19;77.65
75130;HTU21D;63703;44.716;37.846;2023-12-07T03:38:49;8.26;77.66
75130;HTU21D;63703;44.716;37.846;2023-12-07T03:41:15;8.32;77.63
75130;HTU21D;63703;44.716;37.846;2023-12-07T03:43:41;8.38;77.64
75130;HTU21D;63703;44.716;37.846;2023-12-07T03:46:08;8.41;77.64
75130;HTU21D;63703;44.716;37.846;2023-12-07T03:48:34;8.42;77.66
75130;HTU21D;63703;44.716;37.846;2023-12-07T03:51:00;8.46;77.70
75130;HTU21D;63703;44.716;37.846;2023-12-07T03:53:27;8.49;77.74
75130;HTU21D;63703;44.716;37.846;2023-12-07T03:55:55;8.56;77.74
75130;HTU21D;63703;44.716;37.846;2023-12-07T03:58:21;8.60;77.69
75130;HTU21D;63703;44.716;37.846;2023-12-07T04:00:47;8.64;77.72
75130;HTU21D;63703;44.716;37.846;2023-12-07T04:03:13;8.67;77.72
75130;HTU21D;63703;44.716;37.846;2023-12-07T04:05:39;8.73;77.70
75130;HTU21D;63703;44.716;37.846;2023-12-07T04:08:05;8.76;77.68
75130;HTU21D;63703;44.716;37.846;2023-12-07T04:10:31;8.75;77.65
75130;HTU21D;63703;44.716;37.846;2023-12-07T04:12:57;8.70;77.69
75130;HTU21D;63703;44.716;37.846;2023-12-07T04:15:23;8.66;77.69
75130;HTU21D;63703;44.716;37.846;2023-12-07T04:17:50;8.63;77.66
75130;HTU21D;63703;44.716;37.846;2023-12-07T04:20:16;8.56;77.61
75130;HTU21D;63703;44.716;37.846;2023-12-07T04:22:43;8.49;77.58
75130;HTU21D;63703;44.716;37.846;2023-12-07T04:25:11;8.44;77.58
75130;HTU21D;63703;44.716;37.846;2023-12-07T04:27:37;8.42;77.56
75130;HTU21D;63703;44.716;37.846;2023-12-07T04:30:03;8.38;77.51
75130;HTU21D;63703;44.716;37.846;2023-12-07T04:32:29;8.33;77.47
75130;HTU21D;63703;44.716;37.846;2023-12-07T04:34:55;8.24;77.43
75130;HTU21D;63703;44.716;37.846;2023-12-07T04:37:21;8.16;77.41
75130;HTU21D;63703;44.716;37.846;2023-12-07T04:39:47;8.09;77.36
75130;HTU21D;63703;44.716;37.846;2023-12-07T04:42:13;8.03;77.34
75130;HTU21D;63703;44.716;37.846;2023-12-07T04:44:39;7.99;77.35
75130;HTU21D;63703;44.716;37.846;2023-12-07T04:47:05;7.97;77.34
75130;HTU21D;63703;44.716;37.846;2023-12-07T04:49:31;7.94;77.34
75130;HTU21D;63703;44.716;37.846;2023-12-07T04:51:57;7.98;77.33
75130;HTU21D;63703;44.716;37.846;2023-12-07T04:54:23;7.99;77.33
75130;HTU21D;63703;44.716;37.846;2023-12-07T04:56:49;8.07;77.33
75130;HTU21D;63703;44.716;37.846;2023-12-07T04:59:15;8.18;77.32
75130;HTU21D;63703;44.716;37.846;2023-12-07T05:01:41;8.28;77.33
75130;HTU21D;63703;44.716;37.846;2023-12-07T05:04:07;8.42;77.38
75130;HTU21D;63703;44.716;37.846;2023-12-07T05:06:34;8.57;77.35
75130;HTU21D;63703;44.716;37.846;2023-12-07T05:09:01;8.65;77.33
75130;HTU21D;63703;44.716;37.846;2023-12-07T05:11:27;8.72;77.33
75130;HTU21D;63703;44.716;37.846;2023-12-07T05:13:53;8.75;77.37
75130;HTU21D;63703;44.716;37.846;2023-12-07T05:16:18;8.78;77.34
75130;HTU21D;63703;44.716;37.846;2023-12-07T05:18:45;8.79;77.29
75130;HTU21D;63703;44.716;37.846;2023-12-07T05:21:11;8.79;77.27
75130;HTU21D;63703;44.716;37.846;2023-12-07T05:23:37;8.79;77.19
75130;HTU21D;63703;44.716;37.846;2023-12-07T05:26:03;8.80;77.18
75130;HTU21D;63703;44.716;37.846;2023-12-07T05:28:29;8.82;77.11
75130;HTU21D;63703;44.716;37.846;2023-12-07T05:30:55;8.86;77.08
75130;HTU21D;63703;44.716;37.846;2023-12-07T05:33:22;8.89;77.04
75130;HTU21D;63703;44.716;37.846;2023-12-07T05:35:48;8.93;77.02
75130;HTU21D;63703;44.716;37.846;2023-12-07T05:38:14;8.96;76.95
75130;HTU21D;63703;44.716;37.846;2023-12-07T05:40:40;8.97;76.88
75130;HTU21D;63703;44.716;37.846;2023-12-07T05:43:07;8.96;76.83
75130;HTU21D;63703;44.716;37.846;2023-12-07T05:45:33;8.94;76.79
75130;HTU21D;63703;44.716;37.846;2023-12-07T05:47:59;8.93;76.73
75130;HTU21D;63703;44.716;37.846;2023-12-07T05:50:25;8.93;76.71
75130;HTU21D;63703;44.716;37.846;2023-12-07T05:52:52;8.95;76.66
75130;HTU21D;63703;44.716;37.846;2023-12-07T05:55:18;9.00;76.62
75130;HTU21D;63703;44.716;37.846;2023-12-07T05:57:47;9.03;76.59
75130;HTU21D;63703;44.716;37.846;2023-12-07T06:00:13;9.08;76.54
75130;HTU21D;63703;44.716;37.846;2023-12-07T06:02:42;9.14;76.50
75130;HTU21D;63703;44.716;37.846;2023-12-07T06:05:08;9.16;76.50
75130;HTU21D;63703;44.716;37.846;2023-12-07T06:07:35;9.21;76.47
75130;HTU21D;63703;44.716;37.846;2023-12-07T06:10:01;9.26;76.47
75130;HTU21D;63703;44.716;37.846;2023-12-07T06:12:27;9.35;76.45
75130;HTU21D;63703;44.716;37.846;2023-12-07T06:14:53;9.45;76.37
75130;HTU21D;63703;44.716;37.846;2023-12-07T06:17:20;9.47;76.29
75130;HTU21D;63703;44.716;37.846;2023-12-07T06:19:46;9.49;76.28
75130;HTU21D;63703;44.716;37.846;2023-12-07T06:22:12;9.50;76.22
75130;HTU21D;63703;44.716;37.846;2023-12-07T06:24:39;9.52;76.20
75130;HTU21D;63703;44.716;37.846;2023-12-07T06:27:05;9.56;76.17
75130;HTU21D;63703;44.716;37.846;2023-12-07T06:29:32;9.62;76.11
75130;HTU21D;63703;44.716;37.846;2023-12-07T06:31:58;9.67;76.02
75130;HTU21D;63703;44.716;37.846;2023-12-07T06:34:25;9.69;75.98
75130;HTU21D;63703;44.716;37.846;2023-12-07T06:36:51;9.72;75.97
75130;HTU21D;63703;44.716;37.846;2023-12-07T06:39:17;9.79;75.96
75130;HTU21D;63703;44.716;37.846;2023-12-07T06:41:44;9.85;75.92
75130;HTU21D;63703;44.716;37.846;2023-12-07T06:44:10;9.88;75.89
75130;HTU21D;63703;44.716;37.846;2023-12-07T06:46:36;9.92;75.86
75130;HTU21D;63703;44.716;37.846;2023-12-07T06:49:02;9.93;75.84
75130;HTU21D;63703;44.716;37.846;2023-12-07T06:51:28;9.96;75.76
75130;HTU21D;63703;44.716;37.846;2023-12-07T06:53:54;9.96;75.70
75130;HTU21D;63703;44.716;37.846;2023-12-07T06:56:20;9.95;75.60
75130;HTU21D;63703;44.716;37.846;2023-12-07T06:58:46;9.93;75.54
75130;HTU21D;63703;44.716;37.846;2023-12-07T07:01:13;9.92;75.57
75130;HTU21D;63703;44.716;37.846;2023-12-07T07:03:39;9.97;75.54
75130;HTU21D;63703;44.716;37.846;2023-12-07T07:06:05;10.05;75.49
75130;HTU21D;63703;44.716;37.846;2023-12-07T07:08:31;10.06;75.45
75130;HTU21D;63703;44.716;37.846;2023-12-07T07:10:57;10.06;75.43
75130;HTU21D;63703;44.716;37.846;2023-12-07T07:13:23;10.05;75.38
75130;HTU21D;63703;44.716;37.846;2023-12-07T07:15:49;9.99;75.36
75130;HTU21D;63703;44.716;37.846;2023-12-07T07:18:15;9.95;75.40
75130;HTU21D;63703;44.716;37.846;2023-12-07T07:20:41;9.96;75.38
75130;HTU21D;63703;44.716;37.846;2023-12-07T07:23:07;9.93;75.38
75130;HTU21D;63703;44.716;37.846;2023-12-07T07:25:34;9.88;75.38
75130;HTU21D;63703;44.716;37.846;2023-12-07T07:28:00;9.83;75.46
75130;HTU21D;63703;44.716;37.846;2023-12-07T07:30:26;9.79;75.54
75130;HTU21D;63703;44.716;37.846;2023-12-07T07:32:52;9.80;75.62
75130;HTU21D;63703;44.716;37.846;2023-12-07T07:35:18;9.84;75.81
75130;HTU21D;63703;44.716;37.846;2023-12-07T07:37:44;9.91;75.81
75130;HTU21D;63703;44.716;37.846;2023-12-07T07:40:11;10.03;75.81
75130;HTU21D;63703;44.716;37.846;2023-12-07T07:42:40;10.13;75.88
75130;HTU21D;63703;44.716;37.846;2023-12-07T07:45:09;10.25;75.86
75130;HTU21D;63703;44.716;37.846;2023-12-07T07:47:35;10.29;75.83
75130;HTU21D;63703;44.716;37.846;2023-12-07T07:50:01;10.31;75.89
75130;HTU21D;63703;44.716;37.846;2023-12-07T07:52:34;10.38;75.88
75130;HTU21D;63703;44.716;37.846;2023-12-07T07:55:00;10.45;75.86
75130;HTU21D;63703;44.716;37.846;2023-12-07T07:57:29;10.53;75.83
75130;HTU21D;63703;44.716;37.846;2023-12-07T07:59:56;10.59;75.83
75130;HTU21D;63703;44.716;37.846;2023-12-07T08:02:23;10.68;75.79
75130;HTU21D;63703;44.716;37.846;2023-12-07T08:04:49;10.75;75.76
75130;HTU21D;63703;44.716;37.846;2023-12-07T08:07:17;10.81;75.70
75130;HTU21D;63703;44.716;37.846;2023-12-07T08:09:43;10.86;75.66
75130;HTU21D;63703;44.716;37.846;2023-12-07T08:12:09;10.92;75.61
75130;HTU21D;63703;44.716;37.846;2023-12-07T08:14:36;10.97;75.57
75130;HTU21D;63703;44.716;37.846;2023-12-07T08:17:03;11.02;75.54
75130;HTU21D;63703;44.716;37.846;2023-12-07T08:19:29;11.03;75.45
75130;HTU21D;63703;44.716;37.846;2023-12-07T08:21:55;11.02;75.54
75130;HTU21D;63703;44.716;37.846;2023-12-07T08:24:21;11.05;75.51
75130;HTU21D;63703;44.716;37.846;2023-12-07T08:26:47;11.00;75.51
75130;HTU21D;63703;44.716;37.846;2023-12-07T08:29:13;10.93;75.63
75130;HTU21D;63703;44.716;37.846;2023-12-07T08:31:42;10.90;75.64
75130;HTU21D;63703;44.716;37.846;2023-12-07T08:34:08;10.87;75.76
75130;HTU21D;63703;44.716;37.846;2023-12-07T08:36:35;10.89;75.74
75130;HTU21D;63703;44.716;37.846;2023-12-07T08:39:00;10.88;75.77
75130;HTU21D;63703;44.716;37.846;2023-12-07T08:41:26;10.96;75.67
75130;HTU21D;63703;44.716;37.846;2023-12-07T08:43:52;10.95;75.71
75130;HTU21D;63703;44.716;37.846;2023-12-07T08:46:18;10.95;75.70
75130;HTU21D;63703;44.716;37.846;2023-12-07T08:48:44;10.94;75.70
75130;HTU21D;63703;44.716;37.846;2023-12-07T08:51:10;10.93;75.74
75130;HTU21D;63703;44.716;37.846;2023-12-07T08:53:38;10.96;75.72
75130;HTU21D;63703;44.716;37.846;2023-12-07T08:56:04;10.98;75.64
75130;HTU21D;63703;44.716;37.846;2023-12-07T08:58:30;10.92;75.68
75130;HTU21D;63703;44.716;37.846;2023-12-07T09:00:56;10.90;75.67
75130;HTU21D;63703;44.716;37.846;2023-12-07T09:03:22;10.93;75.69
75130;HTU21D;63703;44.716;37.846;2023-12-07T09:05:53;10.94;75.63
75130;HTU21D;63703;44.716;37.846;2023-12-07T09:08:19;10.94;75.62
75130;HTU21D;63703;44.716;37.846;2023-12-07T09:10:45;10.94;75.57
75130;HTU21D;63703;44.716;37.846;2023-12-07T09:13:11;10.96;75.50
75130;HTU21D;63703;44.716;37.846;2023-12-07T09:15:37;10.99;75.34
75130;HTU21D;63703;44.716;37.846;2023-12-07T09:18:03;11.01;75.21
75130;HTU21D;63703;44.716;37.846;2023-12-07T09:20:29;10.99;75.09
75130;HTU21D;63703;44.716;37.846;2023-12-07T09:22:56;10.95;75.04
75130;HTU21D;63703;44.716;37.846;2023-12-07T09:25:22;10.92;74.96
75130;HTU21D;63703;44.716;37.846;2023-12-07T09:27:48;10.86;74.84
75130;HTU21D;63703;44.716;37.846;2023-12-07T09:30:15;10.81;74.75
75130;HTU21D;63703;44.716;37.846;2023-12-07T09:32:42;10.74;74.63
75130;HTU21D;63703;44.716;37.846;2023-12-07T09:35:09;10.69;74.50
75130;HTU21D;63703;44.716;37.846;2023-12-07T09:37:40;10.64;74.45
75130;HTU21D;63703;44.716;37.846;2023-12-07T09:40:08;10.59;74.38
75130;HTU21D;63703;44.716;37.846;2023-12-07T09:42:34;10.54;74.16
75130;HTU21D;63703;44.716;37.846;2023-12-07T09:45:00;10.48;73.98
75130;HTU21D;63703;44.716;37.846;2023-12-07T09:47:28;10.41;73.98
75130;HTU21D;63703;44.716;37.846;2023-12-07T09:49:54;10.38;73.93
75130;HTU21D;63703;44.716;37.846;2023-12-07T09:52:21;10.37;73.87
75130;HTU21D;63703;44.716;37.846;2023-12-07T09:54:48;10.34;73.73
75130;HTU21D;63703;44.716;37.846;2023-12-07T09:57:16;10.33;73.50
75130;HTU21D;63703;44.716;37.846;2023-12-07T09:59:42;10.30;73.57
75130;HTU21D;63703;44.716;37.846;2023-12-07T10:02:08;10.28;73.48
75130;HTU21D;63703;44.716;37.846;2023-12-07T10:04:34;10.25;73.42
75130;HTU21D;63703;44.716;37.846;2023-12-07T10:07:00;10.18;73.26
75130;HTU21D;63703;44.716;37.846;2023-12-07T10:09:26;10.14;73.25
75130;HTU21D;63703;44.716;37.846;2023-12-07T10:12:03;10.13;73.23
75130;HTU21D;63703;44.716;37.846;2023-12-07T10:14:29;10.12;73.38
75130;HTU21D;63703;44.716;37.846;2023-12-07T10:16:55;10.14;73.39
75130;HTU21D;63703;44.716;37.846;2023-12-07T10:19:23;10.15;73.37
75130;HTU21D;63703;44.716;37.846;2023-12-07T10:21:49;10.15;73.38
75130;HTU21D;63703;44.716;37.846;2023-12-07T10:24:16;10.12;73.37
75130;HTU21D;63703;44.716;37.846;2023-12-07T10:26:44;10.09;73.35
75130;HTU21D;63703;44.716;37.846;2023-12-07T10:29:11;10.03;73.16
75130;HTU21D;63703;44.716;37.846;2023-12-07T10:31:37;9.96;73.09
75130;HTU21D;63703;44.716;37.846;2023-12-07T10:34:04;9.91;73.14
75130;HTU21D;63703;44.716;37.846;2023-12-07T10:36:31;9.88;73.05
75130;HTU21D;63703;44.716;37.846;2023-12-07T10:38:58;9.83;72.96
75130;HTU21D;63703;44.716;37.846;2023-12-07T10:41:25;9.83;72.99
75130;HTU21D;63703;44.716;37.846;2023-12-07T10:43:53;9.80;72.93
75130;HTU21D;63703;44.716;37.846;2023-12-07T10:46:21;9.81;72.96
75130;HTU21D;63703;44.716;37.846;2023-12-07T10:48:48;9.82;72.83
75130;HTU21D;63703;44.716;37.846;2023-12-07T10:51:57;9.80;72.54
75130;HTU21D;63703;44.716;37.846;2023-12-07T10:54:30;9.72;72.65
75130;HTU21D;63703;44.716;37.846;2023-12-07T10:57:01;9.65;72.70
75130;HTU21D;63703;44.716;37.846;2023-12-07T10:59:31;9.63;72.66
75130;HTU21D;63703;44.716;37.846;2023-12-07T11:01:57;9.64;72.52
75130;HTU21D;63703;44.716;37.846;2023-12-07T11:04:25;9.65;72.61
75130;HTU21D;63703;44.716;37.846;2023-12-07T11:06:53;9.65;72.32
75130;HTU21D;63703;44.716;37.846;2023-12-07T11:09:24;9.62;72.18
75130;HTU21D;63703;44.716;37.846;2023-12-07T11:11:53;9.62;72.07
75130;HTU21D;63703;44.716;37.846;2023-12-07T11:14:20;9.67;72.20
75130;HTU21D;63703;44.716;37.846;2023-12-07T11:16:48;9.77;72.10
75130;HTU21D;63703;44.716;37.846;2023-12-07T11:21:56;9.95;71.52
75130;HTU21D;63703;44.716;37.846;2023-12-07T11:24:23;10.07;71.46
75130;HTU21D;63703;44.716;37.846;2023-12-07T11:26:54;10.20;71.05
75130;HTU21D;63703;44.716;37.846;2023-12-07T11:29:21;10.21;70.89
75130;HTU21D;63703;44.716;37.846;2023-12-07T11:31:56;10.30;70.38
75130;HTU21D;63703;44.716;37.846;2023-12-07T11:34:38;10.35;69.74
75130;HTU21D;63703;44.716;37.846;2023-12-07T11:37:05;10.36;69.86
75130;HTU21D;63703;44.716;37.846;2023-12-07T11:39:41;10.36;69.23
75130;HTU21D;63703;44.716;37.846;2023-12-07T11:42:26;10.64;68.95
75130;HTU21D;63703;44.716;37.846;2023-12-07T11:44:52;10.88;67.75
75130;HTU21D;63703;44.716;37.846;2023-12-07T11:47:19;10.45;68.16
75130;HTU21D;63703;44.716;37.846;2023-12-07T11:49:47;9.99;68.72
75130;HTU21D;63703;44.716;37.846;2023-12-07T11:52:14;9.74;69.07
75130;HTU21D;63703;44.716;37.846;2023-12-07T11:54:47;9.59;69.29
75130;HTU21D;63703;44.716;37.846;2023-12-07T11:57:14;9.64;69.45
75130;HTU21D;63703;44.716;37.846;2023-12-07T11:59:42;9.76;69.49
75130;HTU21D;63703;44.716;37.846;2023-12-07T12:02:13;10.24;68.55
75130;HTU21D;63703;44.716;37.846;2023-12-07T12:04:42;10.51;68.04
75130;HTU21D;63703;44.716;37.846;2023-12-07T12:07:08;10.87;67.63
75130;HTU21D;63703;44.716;37.846;2023-12-07T12:09:34;11.40;66.62
75130;HTU21D;63703;44.716;37.846;2023-12-07T12:12:00;11.53;65.93
75130;HTU21D;63703;44.716;37.846;2023-12-07T12:14:27;12.26;64.85
75130;HTU21D;63703;44.716;37.846;2023-12-07T12:16:54;13.01;63.02
75130;HTU21D;63703;44.716;37.846;2023-12-07T12:19:22;13.33;62.31
75130;HTU21D;63703;44.716;37.846;2023-12-07T12:21:49;13.26;62.18
75130;HTU21D;63703;44.716;37.846;2023-12-07T12:24:16;12.59;62.96
75130;HTU21D;63703;44.716;37.846;2023-12-07T12:26:42;11.83;63.92
75130;HTU21D;63703;44.716;37.846;2023-12-07T12:29:10;11.27;64.65
75130;HTU21D;63703;44.716;37.846;2023-12-07T12:31:38;10.88;65.00
75130;HTU21D;63703;44.716;37.846;2023-12-07T12:34:07;10.95;65.16
75130;HTU21D;63703;44.716;37.846;2023-12-07T12:36:38;11.28;64.59
75130;HTU21D;63703;44.716;37.846;2023-12-07T12:39:04;11.38;64.24
75130;HTU21D;63703;44.716;37.846;2023-12-07T12:41:34;11.07;64.43
75130;HTU21D;63703;44.716;37.846;2023-12-07T12:44:00;10.70;64.87
75130;HTU21D;63703;44.716;37.846;2023-12-07T12:46:26;10.27;65.48
75130;HTU21D;63703;44.716;37.846;2023-12-07T12:48:53;9.88;66.27
75130;HTU21D;63703;44.716;37.846;2023-12-07T12:51:22;9.53;66.97
75130;HTU21D;63703;44.716;37.846;2023-12-07T12:53:50;9.24;67.48
75130;HTU21D;63703;44.716;37.846;2023-12-07T12:56:19;8.93;68.07
75130;HTU21D;63703;44.716;37.846;2023-12-07T12:58:46;8.71;68.75
75130;HTU21D;63703;44.716;37.846;2023-12-07T13:01:12;8.55;69.13
75130;HTU21D;63703;44.716;37.846;2023-12-07T13:03:38;8.36;69.59
75130;HTU21D;63703;44.716;37.846;2023-12-07T13:06:04;8.22;70.05
75130;HTU21D;63703;44.716;37.846;2023-12-07T13:08:30;8.07;70.45
75130;HTU21D;63703;44.716;37.846;2023-12-07T13:10:58;7.92;70.91
75130;HTU21D;63703;44.716;37.846;2023-12-07T13:13:24;7.81;71.31
75130;HTU21D;63703;44.716;37.846;2023-12-07T13:15:50;7.64;71.70
75130;HTU21D;63703;44.716;37.846;2023-12-07T13:18:16;7.53;72.07
75130;HTU21D;63703;44.716;37.846;2023-12-07T13:20:43;7.41;72.33
75130;HTU21D;63703;44.716;37.846;2023-12-07T13:23:09;7.30;72.63
75130;HTU21D;63703;44.716;37.846;2023-12-07T13:25:35;7.22;72.83
75130;HTU21D;63703;44.716;37.846;2023-12-07T13:28:01;7.14;73.12
75130;HTU21D;63703;44.716;37.846;2023-12-07T13:30:28;7.08;73.41
75130;HTU21D;63703;44.716;37.846;2023-12-07T13:32:55;7.00;73.66
75130;HTU21D;63703;44.716;37.846;2023-12-07T13:35:21;6.96;74.02
75130;HTU21D;63703;44.716;37.846;2023-12-07T13:37:48;6.91;74.12
75130;HTU21D;63703;44.716;37.846;2023-12-07T13:40:14;6.86;74.28
75130;HTU21D;63703;44.716;37.846;2023-12-07T13:42:41;6.81;74.41
75130;HTU21D;63703;44.716;37.846;2023-12-07T13:45:07;6.75;74.62
75130;HTU21D;63703;44.716;37.846;2023-12-07T13:47:34;6.74;74.83
75130;HTU21D;63703;44.716;37.846;2023-12-07T13:50:03;6.71;75.02
75130;HTU21D;63703;44.716;37.846;2023-12-07T13:52:30;6.69;75.18
75130;HTU21D;63703;44.716;37.846;2023-12-07T13:54:57;6.67;75.54
75130;HTU21D;63703;44.716;37.846;2023-12-07T13:57:23;6.60;75.60
75130;HTU21D;63703;44.716;37.846;2023-12-07T13:59:53;6.54;75.73
75130;HTU21D;63703;44.716;37.846;2023-12-07T14:02:20;6.52;75.89
75130;HTU21D;63703;44.716;37.846;2023-12-07T14:04:47;6.48;76.05
75130;HTU21D;63703;44.716;37.846;2023-12-07T14:07:18;6.43;76.00
75130;HTU21D;63703;44.716;37.846;2023-12-07T14:09:51;6.42;76.28
75130;HTU21D;63703;44.716;37.846;2023-12-07T14:12:17;6.38;76.35
75130;HTU21D;63703;44.716;37.846;2023-12-07T14:14:46;6.36;76.63
75130;HTU21D;63703;44.716;37.846;2023-12-07T14:17:13;6.35;76.69
75130;HTU21D;63703;44.716;37.846;2023-12-07T14:19:39;6.33;76.79
75130;HTU21D;63703;44.716;37.846;2023-12-07T14:22:06;6.29;76.84
75130;HTU21D;63703;44.716;37.846;2023-12-07T14:24:36;6.30;76.89
75130;HTU21D;63703;44.716;37.846;2023-12-07T14:27:03;6.30;77.11
75130;HTU21D;63703;44.716;37.846;2023-12-07T14:29:30;6.25;77.12
75130;HTU21D;63703;44.716;37.846;2023-12-07T14:31:58;6.25;77.15
75130;HTU21D;63703;44.716;37.846;2023-12-07T14:34:25;6.25;77.27
75130;HTU21D;63703;44.716;37.846;2023-12-07T14:36:53;6.24;77.47
75130;HTU21D;63703;44.716;37.846;2023-12-07T14:39:19;6.22;77.56
75130;HTU21D;63703;44.716;37.846;2023-12-07T14:41:47;6.21;77.60
75130;HTU21D;63703;44.716;37.846;2023-12-07T14:44:15;6.21;77.71
75130;HTU21D;63703;44.716;37.846;2023-12-07T14:46:48;6.22;77.71
75130;HTU21D;63703;44.716;37.846;2023-12-07T14:49:15;6.19;77.69
75130;HTU21D;63703;44.716;37.846;2023-12-07T14:51:42;6.20;77.78
75130;HTU21D;63703;44.716;37.846;2023-12-07T14:54:09;6.17;77.76
75130;HTU21D;63703;44.716;37.846;2023-12-07T14:56:38;6.20;77.79
75130;HTU21D;63703;44.716;37.846;2023-12-07T14:59:06;6.21;77.76
75130;HTU21D;63703;44.716;37.846;2023-12-07T15:01:32;6.23;77.80
75130;HTU21D;63703;44.716;37.846;2023-12-07T15:03:58;6.27;77.72
75130;HTU21D;63703;44.716;37.846;2023-12-07T15:06:25;6.26;77.66
75130;HTU21D;63703;44.716;37.846;2023-12-07T15:08:52;6.26;77.61
75130;HTU21D;63703;44.716;37.846;2023-12-07T15:11:18;6.24;77.60
75130;HTU21D;63703;44.716;37.846;2023-12-07T15:13:45;6.24;77.62